createdAt,value
2023-02-17T00:01:13.223Z,10.82
2023-02-17T00:03:40.555Z,9.80
2023-02-17T00:06:11.685Z,11.13
2023-02-17T00:08:38.799Z,12.02
2023-02-17T00:11:06.209Z,10.18
2023-02-17T00:13:33.389Z,10.73
2023-02-17T00:16:00.688Z,10.35
2023-02-17T00:18:27.677Z,10.70
2023-02-17T00:20:55.145Z,11.32
2023-02-17T00:23:22.095Z,10.10
2023-02-17T00:25:49.054Z,9.88
2023-02-17T00:28:15.950Z,10.88
2023-02-17T00:30:42.931Z,10.10
2023-02-17T00:33:09.808Z,10.77
2023-02-17T00:35:40.820Z,9.52
2023-02-17T00:38:07.875Z,9.80
2023-02-17T00:40:34.801Z,10.88
2023-02-17T00:43:01.737Z,9.70
2023-02-17T00:45:28.638Z,9.73
2023-02-17T00:47:55.515Z,10.35
2023-02-17T00:50:22.516Z,9.13
2023-02-17T00:52:49.569Z,10.70
2023-02-17T00:55:16.683Z,10.05
2023-02-17T00:57:43.700Z,9.43
2023-02-17T01:00:11.178Z,9.50
2023-02-17T01:02:38.101Z,9.75
2023-02-17T01:05:05.546Z,9.68
2023-02-17T01:07:32.635Z,9.85
2023-02-17T01:09:59.511Z,9.10
2023-02-17T01:12:26.508Z,9.27
2023-02-17T01:14:53.503Z,8.85
2023-02-17T01:17:20.470Z,8.40
2023-02-17T01:19:47.536Z,8.55
2023-02-17T01:22:14.808Z,8.88
2023-02-17T01:24:41.776Z,8.07
2023-02-17T01:27:09.058Z,8.57
2023-02-17T01:29:36.325Z,8.93
2023-02-17T01:32:03.322Z,7.97
2023-02-17T01:34:30.260Z,7.97
2023-02-17T01:36:57.189Z,6.78
2023-02-17T01:39:24.210Z,8.25
2023-02-17T01:41:51.186Z,9.10
2023-02-17T01:44:23.400Z,8.43
2023-02-17T01:46:53.130Z,6.95
2023-02-17T01:49:39.644Z,6.75
2023-02-17T01:52:36.300Z,6.88
2023-02-17T01:55:10.438Z,7.07
2023-02-17T01:57:40.390Z,7.18
2023-02-17T02:00:09.462Z,6.15
2023-02-17T02:02:36.604Z,7.30
2023-02-17T02:05:04.543Z,7.18
2023-02-17T02:07:35.342Z,6.90
2023-02-17T02:10:02.807Z,7.22
2023-02-17T02:12:32.473Z,6.93
2023-02-17T02:15:03.113Z,7.28
2023-02-17T02:17:44.341Z,6.47
2023-02-17T02:20:32.855Z,8.10
2023-02-17T02:23:08.651Z,7.15
2023-02-17T02:28:23.490Z,7.40
2023-02-17T02:31:25.834Z,8.20
2023-02-17T02:34:21.001Z,6.57
2023-02-17T02:37:05.377Z,7.63
2023-02-17T02:39:40.614Z,7.18
2023-02-17T02:42:13.028Z,7.07
2023-02-17T02:44:40.171Z,7.70
2023-02-17T02:47:46.910Z,6.50
2023-02-17T02:50:19.493Z,7.22
2023-02-17T02:52:52.527Z,7.72
2023-02-17T02:55:42.637Z,6.88
2023-02-17T02:58:38.470Z,7.32
2023-02-17T03:01:14.323Z,7.67
2023-02-17T03:03:58.059Z,6.60
2023-02-17T03:06:36.613Z,7.25
2023-02-17T03:09:11.538Z,7.90
2023-02-17T03:11:40.498Z,7.47
2023-02-17T03:14:15.035Z,7.57
2023-02-17T03:16:42.869Z,7.97
2023-02-17T03:19:11.333Z,7.97
2023-02-17T03:21:48.042Z,8.82
2023-02-17T03:24:15.118Z,7.07
2023-02-17T03:26:42.023Z,7.43
2023-02-17T03:29:09.190Z,7.50
2023-02-17T03:31:36.938Z,6.88
2023-02-17T03:34:04.282Z,6.28
2023-02-17T03:36:31.286Z,6.93
2023-02-17T03:38:58.366Z,6.53
2023-02-17T03:41:25.800Z,6.25
2023-02-17T03:43:52.971Z,6.85
2023-02-17T03:46:20.035Z,6.38
2023-02-17T03:48:47.112Z,6.47
2023-02-17T03:51:20.164Z,6.30
2023-02-17T03:53:47.687Z,6.20
2023-02-17T03:56:15.450Z,6.40
2023-02-17T03:58:43.066Z,6.13
2023-02-17T04:01:12.135Z,6.97
2023-02-17T04:03:40.344Z,6.40
2023-02-17T04:06:08.621Z,6.57
2023-02-17T04:08:36.351Z,6.68
2023-02-17T04:11:04.910Z,6.95
2023-02-17T04:13:32.477Z,6.15
2023-02-17T04:16:01.509Z,6.47
2023-02-17T04:18:28.908Z,7.03
2023-02-17T04:20:55.946Z,5.85
2023-02-17T04:23:23.059Z,6.50
2023-02-17T04:25:50.536Z,6.13
2023-02-17T04:28:18.349Z,6.78
2023-02-17T04:30:47.152Z,5.60
2023-02-17T04:33:15.035Z,5.95
2023-02-17T04:35:42.127Z,6.13
2023-02-17T04:38:10.827Z,7.40
2023-02-17T04:40:38.790Z,5.75
2023-02-17T04:43:06.171Z,5.28
2023-02-17T04:45:33.840Z,5.15
2023-02-17T04:48:00.884Z,5.82
2023-02-17T04:50:28.434Z,5.68
2023-02-17T04:52:55.456Z,5.28
2023-02-17T04:55:22.357Z,5.00
2023-02-17T04:57:49.224Z,6.13
2023-02-17T05:00:16.538Z,5.40
2023-02-17T05:02:43.509Z,5.38
2023-02-17T05:05:10.621Z,5.50
2023-02-17T05:07:37.582Z,5.65
2023-02-17T05:10:04.700Z,6.28
2023-02-17T05:12:31.714Z,5.82
2023-02-17T05:14:58.772Z,5.35
2023-02-17T05:17:25.739Z,6.80
2023-02-17T05:19:52.668Z,5.25
2023-02-17T05:22:19.660Z,5.35
2023-02-17T05:24:46.719Z,5.72
2023-02-17T05:27:13.736Z,5.45
2023-02-17T05:29:40.699Z,5.00
2023-02-17T05:32:07.663Z,5.03
2023-02-17T05:34:34.602Z,5.78
2023-02-17T05:37:01.530Z,5.80
2023-02-17T05:39:28.632Z,5.47
2023-02-17T05:41:56.713Z,5.82
2023-02-17T05:44:23.896Z,5.30
2023-02-17T05:46:50.846Z,5.95
2023-02-17T05:49:17.907Z,6.10
2023-02-17T05:51:44.793Z,5.57
2023-02-17T05:54:11.884Z,5.45
2023-02-17T05:56:39.937Z,5.80
2023-02-17T05:59:06.891Z,5.65
2023-02-17T06:01:35.180Z,5.78
2023-02-17T06:04:02.922Z,6.20
2023-02-17T06:06:29.927Z,6.40
2023-02-17T06:08:56.917Z,5.93
2023-02-17T06:11:24.027Z,6.97
2023-02-17T06:13:50.928Z,6.55
2023-02-17T06:16:17.927Z,6.40
2023-02-17T06:18:44.931Z,6.30
2023-02-17T06:21:11.906Z,7.63
2023-02-17T06:23:38.825Z,7.38
2023-02-17T06:26:05.962Z,6.95
2023-02-17T06:28:35.001Z,7.68
2023-02-17T06:31:02.386Z,7.05
2023-02-17T06:33:29.671Z,7.13
2023-02-17T06:35:56.858Z,8.10
2023-02-17T06:38:23.794Z,6.85
2023-02-17T06:40:50.745Z,6.90
2023-02-17T06:43:17.647Z,7.00
2023-02-17T06:45:44.698Z,8.30
2023-02-17T06:48:11.796Z,6.95
2023-02-17T06:50:39.184Z,7.65
2023-02-17T06:53:06.164Z,6.88
2023-02-17T06:55:35.427Z,7.78
2023-02-17T06:58:02.360Z,8.55
2023-02-17T07:00:29.397Z,8.05
2023-02-17T07:02:56.526Z,8.18
2023-02-17T07:05:23.632Z,6.70
2023-02-17T07:07:53.301Z,6.88
2023-02-17T07:10:20.405Z,7.72
2023-02-17T07:12:47.285Z,6.90
2023-02-17T07:15:15.110Z,6.25
2023-02-17T07:17:42.142Z,7.57
2023-02-17T07:20:09.648Z,7.47
2023-02-17T07:22:36.616Z,7.00
2023-02-17T07:25:04.711Z,8.00
2023-02-17T07:27:32.298Z,6.30
2023-02-17T07:29:59.426Z,6.70
2023-02-17T07:32:26.379Z,6.85
2023-02-17T07:34:53.303Z,7.45
2023-02-17T07:37:21.961Z,7.03
2023-02-17T07:39:49.387Z,6.97
2023-02-17T07:42:16.436Z,6.95
2023-02-17T07:44:43.429Z,8.32
2023-02-17T07:47:10.436Z,6.57
2023-02-17T07:49:37.411Z,6.28
2023-02-17T07:52:05.436Z,7.97
2023-02-17T07:54:32.489Z,6.20
2023-02-17T07:57:00.148Z,6.15
2023-02-17T07:59:27.474Z,7.50
2023-02-17T08:01:54.403Z,6.55
2023-02-17T08:04:21.474Z,6.03
2023-02-17T08:06:48.569Z,6.70
2023-02-17T08:09:34.253Z,6.70
2023-02-17T08:12:19.539Z,5.47
2023-02-17T08:14:46.618Z,7.35
2023-02-17T08:17:13.516Z,6.22
2023-02-17T08:19:47.951Z,6.18
2023-02-17T08:22:17.399Z,6.38
2023-02-17T08:24:44.854Z,7.35
2023-02-17T08:27:12.006Z,6.53
2023-02-17T08:29:38.948Z,7.25
2023-02-17T08:32:06.025Z,7.55
2023-02-17T08:34:36.026Z,6.20
2023-02-17T08:37:05.113Z,6.45
2023-02-17T08:39:33.495Z,7.30
2023-02-17T08:42:01.512Z,6.40
2023-02-17T08:44:28.490Z,7.00
2023-02-17T08:46:55.769Z,7.60
2023-02-17T08:49:25.971Z,7.72
2023-02-17T08:51:52.983Z,5.97
2023-02-17T08:54:20.121Z,7.03
2023-02-17T08:56:47.285Z,6.80
2023-02-17T08:59:14.723Z,7.40
2023-02-17T09:01:43.202Z,7.15
2023-02-17T09:04:12.020Z,7.45
2023-02-17T09:06:42.785Z,8.27
2023-02-17T09:09:12.208Z,7.18
2023-02-17T09:11:39.244Z,7.63
2023-02-17T09:14:06.405Z,8.20
2023-02-17T09:16:33.450Z,7.30
2023-02-17T09:19:00.507Z,7.18
2023-02-17T09:21:27.888Z,7.53
2023-02-17T09:23:54.828Z,8.18
2023-02-17T09:26:22.932Z,7.53
2023-02-17T09:28:50.549Z,7.45
2023-02-17T09:31:26.639Z,8.50
2023-02-17T09:33:53.786Z,7.82
2023-02-17T09:36:24.040Z,7.70
2023-02-17T09:38:52.014Z,8.00
2023-02-17T09:41:34.504Z,8.13
2023-02-17T09:44:02.225Z,8.70
2023-02-17T09:46:33.863Z,7.45
2023-02-17T09:49:13.580Z,8.10
2023-02-17T09:52:07.852Z,6.80
2023-02-17T09:54:48.433Z,7.90
2023-02-17T09:57:20.946Z,7.80
2023-02-17T10:00:09.464Z,7.50
2023-02-17T10:02:48.665Z,7.95
2023-02-17T10:05:20.619Z,9.00
2023-02-17T10:07:53.522Z,9.60
2023-02-17T10:10:30.892Z,9.10
2023-02-17T10:13:01.756Z,9.45
2023-02-17T10:15:35.159Z,9.68
2023-02-17T10:18:26.503Z,10.32
2023-02-17T10:21:13.475Z,10.05
2023-02-17T10:23:40.673Z,10.63
2023-02-17T10:26:25.602Z,10.15
2023-02-17T10:29:05.549Z,9.80
2023-02-17T10:31:54.687Z,10.00
2023-02-17T10:34:38.223Z,10.25
2023-02-17T10:37:25.426Z,9.60
2023-02-17T10:39:57.205Z,9.95
2023-02-17T10:42:28.813Z,10.48
2023-02-17T10:45:03.323Z,10.70
2023-02-17T10:47:30.713Z,9.82
2023-02-17T10:50:01.513Z,10.65
2023-02-17T10:52:36.904Z,9.82
2023-02-17T10:55:22.417Z,9.80
2023-02-17T10:57:54.648Z,10.95
2023-02-17T11:00:22.756Z,11.27
2023-02-17T11:02:52.417Z,12.07
2023-02-17T11:05:26.945Z,11.95
2023-02-17T11:08:37.465Z,12.38
2023-02-17T11:11:25.193Z,11.88
2023-02-17T11:14:21.262Z,12.82
2023-02-17T11:17:01.707Z,12.98
2023-02-17T11:19:34.061Z,14.18
2023-02-17T11:22:04.027Z,14.35
2023-02-17T11:24:34.140Z,16.00
2023-02-17T11:27:04.022Z,16.17
2023-02-17T11:29:31.181Z,16.90
2023-02-17T11:32:07.201Z,18.27
2023-02-17T11:34:37.079Z,18.35
2023-02-17T11:37:22.437Z,19.55
2023-02-17T11:39:54.610Z,20.33
2023-02-17T11:42:28.387Z,20.65
2023-02-17T11:45:01.367Z,22.83
2023-02-17T11:47:52.891Z,23.48
2023-02-17T11:50:41.575Z,23.83
2023-02-17T11:53:39.077Z,23.60
2023-02-17T11:56:19.366Z,25.42
2023-02-17T11:59:09.515Z,26.05
2023-02-17T12:01:39.586Z,25.15
2023-02-17T12:04:18.836Z,25.45
2023-02-17T12:07:00.673Z,24.38
2023-02-17T12:09:29.828Z,27.40
2023-02-17T12:12:14.154Z,26.77
2023-02-17T12:15:03.555Z,26.38
2023-02-17T12:17:36.568Z,26.45
2023-02-17T12:20:39.273Z,25.70
2023-02-17T12:23:27.704Z,27.95
2023-02-17T12:26:07.249Z,25.50
2023-02-17T12:28:54.705Z,24.05
2023-02-17T12:32:01.073Z,20.73
2023-02-17T12:34:31.132Z,20.52
2023-02-17T12:37:00.628Z,19.65
2023-02-17T12:39:59.794Z,20.02
2023-02-17T12:42:37.389Z,17.50
2023-02-17T12:45:14.491Z,17.75
2023-02-17T12:48:02.656Z,18.38
2023-02-17T12:50:51.149Z,17.27
2023-02-17T12:53:53.597Z,16.23
2023-02-17T12:56:33.633Z,14.70
2023-02-17T12:59:15.313Z,13.65
2023-02-17T13:02:03.246Z,14.20
2023-02-17T13:04:32.693Z,15.07
2023-02-17T13:07:21.362Z,14.00
2023-02-17T13:09:50.122Z,13.80
2023-02-17T13:12:23.146Z,13.25
2023-02-17T13:14:53.809Z,11.98
2023-02-17T13:17:29.706Z,12.32
2023-02-17T13:20:12.235Z,11.90
2023-02-17T13:22:41.164Z,11.65
2023-02-17T13:25:13.178Z,12.75
2023-02-17T13:27:41.446Z,10.80
2023-02-17T13:30:17.480Z,11.77
2023-02-17T13:32:45.045Z,12.07
2023-02-17T13:35:14.637Z,11.68
2023-02-17T13:37:45.269Z,12.25
2023-02-17T13:40:18.177Z,10.77
2023-02-17T13:42:50.341Z,11.88
2023-02-17T13:45:23.005Z,10.90
2023-02-17T13:47:53.124Z,10.68
2023-02-17T13:50:38.103Z,11.63
2023-02-17T13:53:32.774Z,9.57
2023-02-17T13:56:02.465Z,10.05
2023-02-17T13:58:33.607Z,12.50
2023-02-17T14:01:03.065Z,9.13
2023-02-17T14:03:53.179Z,9.52
2023-02-17T14:06:40.598Z,9.82
2023-02-17T14:09:28.667Z,9.55
2023-02-17T14:11:57.065Z,9.43
2023-02-17T14:14:28.524Z,9.60
2023-02-17T14:17:02.060Z,9.50
2023-02-17T14:19:29.634Z,8.98
2023-02-17T14:22:05.489Z,8.45
2023-02-17T14:27:03.956Z,8.63
2023-02-17T14:29:44.623Z,8.93
2023-02-17T14:32:31.786Z,8.80
2023-02-17T14:35:13.714Z,7.97
2023-02-17T14:37:42.060Z,9.90
2023-02-17T14:40:20.340Z,9.80
2023-02-17T14:42:47.603Z,9.40
2023-02-17T14:45:15.407Z,8.75
2023-02-17T14:47:43.270Z,8.32
2023-02-17T14:50:11.580Z,8.55
2023-02-17T14:52:46.552Z,8.93
2023-02-17T14:55:35.851Z,9.55
2023-02-17T14:58:03.637Z,7.90
2023-02-17T15:00:31.145Z,8.20
2023-02-17T15:02:58.131Z,7.60
2023-02-17T15:05:25.760Z,7.65
2023-02-17T15:07:52.755Z,8.23
2023-02-17T15:10:25.783Z,8.00
2023-02-17T15:12:53.013Z,7.57
2023-02-17T15:15:20.277Z,7.82
2023-02-17T15:17:47.247Z,8.05
2023-02-17T15:20:16.224Z,7.18
2023-02-17T15:22:44.467Z,7.50
2023-02-17T15:25:19.764Z,7.55
2023-02-17T15:27:47.108Z,6.50
2023-02-17T15:30:20.313Z,7.43
2023-02-17T15:32:47.951Z,5.90
2023-02-17T15:35:21.845Z,5.80
2023-02-17T15:37:49.798Z,5.85
2023-02-17T15:40:20.113Z,4.15
2023-02-17T15:42:56.748Z,4.07
2023-02-17T15:45:24.856Z,3.67
2023-02-17T15:47:57.533Z,3.08
2023-02-17T15:50:24.935Z,2.95
2023-02-17T15:52:52.598Z,3.95
2023-02-17T15:55:20.882Z,2.83
2023-02-17T15:57:51.022Z,3.05
2023-02-17T16:00:21.111Z,3.40
2023-02-17T16:02:48.095Z,2.92
2023-02-17T16:05:18.070Z,2.40
2023-02-17T16:07:45.514Z,2.30
2023-02-17T16:10:15.699Z,2.08
2023-02-17T16:12:43.244Z,2.45
2023-02-17T16:15:25.226Z,1.63
2023-02-17T16:17:52.541Z,1.52
2023-02-17T16:20:24.179Z,1.20
2023-02-17T16:22:51.401Z,1.85
2023-02-17T16:25:21.189Z,1.30
2023-02-17T16:27:51.469Z,1.20
2023-02-17T16:30:33.891Z,1.35
2023-02-17T16:33:01.265Z,1.77
2023-02-17T16:35:30.793Z,1.55
2023-02-17T16:38:01.248Z,1.92
2023-02-17T16:40:30.815Z,1.77
2023-02-17T16:42:58.034Z,2.08
2023-02-17T16:45:28.035Z,2.20
2023-02-17T16:47:57.428Z,2.65
2023-02-17T16:50:31.814Z,1.90
2023-02-17T16:53:05.191Z,2.67
2023-02-17T16:55:36.508Z,2.85
2023-02-17T16:58:04.816Z,2.85
2023-02-17T17:00:33.362Z,3.05
2023-02-17T17:03:00.476Z,2.60
2023-02-17T17:05:28.841Z,2.60
2023-02-17T17:07:56.152Z,2.20
2023-02-17T17:10:31.466Z,1.90
2023-02-17T17:12:58.443Z,2.75
2023-02-17T17:15:25.701Z,2.28
2023-02-17T17:18:01.966Z,1.98
2023-02-17T17:20:34.237Z,2.28
2023-02-17T17:23:11.024Z,2.58
2023-02-17T17:25:40.629Z,2.40
2023-02-17T17:28:08.396Z,2.40
2023-02-17T17:30:36.070Z,2.40
2023-02-17T17:33:03.539Z,3.20
2023-02-17T17:35:31.590Z,3.17
2023-02-17T17:37:58.984Z,3.10
2023-02-17T17:40:28.982Z,4.13
2023-02-17T17:42:55.999Z,3.75
2023-02-17T17:45:24.456Z,4.30
2023-02-17T17:47:51.856Z,4.45
2023-02-17T17:50:23.001Z,4.50
2023-02-17T17:52:49.979Z,5.22
2023-02-17T17:55:17.391Z,5.72
2023-02-17T17:57:44.473Z,5.50
2023-02-17T18:00:14.615Z,5.55
2023-02-17T18:02:41.767Z,5.43
2023-02-17T18:05:09.271Z,5.80
2023-02-17T18:07:38.468Z,5.72
2023-02-17T18:10:10.677Z,6.22
2023-02-17T18:12:38.797Z,6.22
2023-02-17T18:15:07.235Z,6.82
2023-02-17T18:17:37.513Z,6.35
2023-02-17T18:20:05.717Z,6.43
2023-02-17T18:22:32.796Z,6.97
2023-02-17T18:24:59.711Z,6.47
2023-02-17T18:27:26.616Z,6.10
2023-02-17T18:29:57.019Z,5.55
2023-02-17T18:32:24.877Z,5.20
2023-02-17T18:34:51.853Z,6.00
2023-02-17T18:37:18.787Z,5.55
2023-02-17T18:39:45.727Z,5.20
2023-02-17T18:42:12.703Z,5.93
2023-02-17T18:44:39.614Z,6.45
2023-02-17T18:47:06.508Z,5.72
2023-02-17T18:49:33.543Z,5.90
2023-02-17T18:52:00.452Z,5.88
2023-02-17T18:54:28.965Z,6.68
2023-02-17T18:56:56.091Z,6.93
2023-02-17T18:59:22.997Z,7.22
2023-02-17T19:01:49.991Z,5.93
2023-02-17T19:04:16.964Z,5.72
2023-02-17T19:06:43.974Z,5.95
2023-02-17T19:09:10.975Z,6.30
2023-02-17T19:11:37.887Z,6.20
2023-02-17T19:14:04.844Z,5.70
2023-02-17T19:16:32.609Z,5.30
2023-02-17T19:19:00.392Z,6.18
2023-02-17T19:21:27.556Z,5.95
2023-02-17T19:23:54.988Z,5.63
2023-02-17T19:26:22.354Z,5.03
2023-02-17T19:28:49.924Z,5.40
2023-02-17T19:31:20.277Z,4.80
2023-02-17T19:33:47.806Z,6.22
2023-02-17T19:36:20.398Z,5.40
2023-02-17T19:38:48.530Z,6.25
2023-02-17T19:41:16.600Z,6.43
2023-02-17T19:43:44.163Z,7.07
2023-02-17T19:46:16.209Z,8.88
2023-02-17T19:48:43.103Z,7.85
2023-02-17T19:51:12.451Z,7.25
2023-02-17T19:53:40.346Z,7.40
2023-02-17T19:56:24.714Z,6.78
2023-02-17T19:58:52.965Z,7.05
2023-02-17T20:01:23.463Z,7.45
2023-02-17T20:03:54.337Z,8.07
2023-02-17T20:06:25.117Z,6.95
2023-02-17T20:08:57.322Z,6.30
2023-02-17T20:11:24.940Z,6.75
2023-02-17T20:13:52.169Z,5.65
2023-02-17T20:16:19.591Z,6.15
2023-02-17T20:18:49.200Z,6.80
2023-02-17T20:21:22.179Z,5.93
2023-02-17T20:23:49.464Z,4.95
2023-02-17T20:26:22.648Z,5.00
2023-02-17T20:28:50.408Z,5.30
2023-02-17T20:31:18.454Z,4.88
2023-02-17T20:33:45.395Z,4.05
2023-02-17T20:36:12.392Z,5.72
2023-02-17T20:38:40.715Z,5.65
2023-02-17T20:41:09.302Z,5.90
2023-02-17T20:43:37.841Z,4.45
2023-02-17T20:46:05.495Z,4.47
2023-02-17T20:48:33.378Z,4.07
2023-02-17T20:51:00.350Z,3.80
2023-02-17T20:53:27.403Z,3.78
2023-02-17T20:55:54.358Z,4.32
2023-02-17T20:58:21.411Z,4.65
2023-02-17T21:00:48.803Z,4.68
2023-02-17T21:03:15.914Z,5.03
2023-02-17T21:05:42.859Z,4.63
2023-02-17T21:08:10.101Z,4.60
2023-02-17T21:10:39.864Z,3.95
2023-02-17T21:13:06.804Z,5.47
2023-02-17T21:15:34.133Z,8.05
2023-02-17T21:18:01.279Z,10.73
2023-02-17T21:20:28.156Z,6.20
2023-02-17T21:22:55.074Z,5.43
2023-02-17T21:25:21.987Z,4.18
2023-02-17T21:27:48.948Z,4.85
2023-02-17T21:30:16.004Z,5.18
2023-02-17T21:32:43.046Z,6.20
2023-02-17T21:35:11.196Z,5.75
2023-02-17T21:37:39.209Z,5.88
2023-02-17T21:40:07.908Z,6.15
2023-02-17T21:42:55.913Z,6.88
2023-02-17T21:45:24.110Z,7.32
2023-02-17T21:47:51.794Z,7.20
2023-02-17T21:50:19.237Z,7.45
2023-02-17T21:52:46.252Z,5.57
2023-02-17T21:55:13.324Z,6.00
2023-02-17T21:57:40.234Z,5.97
2023-02-17T22:00:08.914Z,5.60
2023-02-17T22:02:36.672Z,5.50
2023-02-17T22:05:04.207Z,4.47
2023-02-17T22:07:31.416Z,3.58
2023-02-17T22:10:01.310Z,3.55
2023-02-17T22:12:28.295Z,2.80
2023-02-17T22:14:55.238Z,2.17
2023-02-17T22:17:22.194Z,1.95
2023-02-17T22:19:49.264Z,1.55
2023-02-17T22:22:16.376Z,1.75
2023-02-17T22:24:43.383Z,1.63
2023-02-17T22:27:10.395Z,0.80
2023-02-17T22:29:37.346Z,1.67
2023-02-17T22:32:04.682Z,1.58
2023-02-17T22:34:31.813Z,1.00
2023-02-17T22:36:58.828Z,1.10
2023-02-17T22:39:25.877Z,1.10
2023-02-17T22:41:53.005Z,0.93
2023-02-17T22:44:19.937Z,0.80
2023-02-17T22:46:46.997Z,1.33
2023-02-17T22:49:14.059Z,1.20
2023-02-17T22:51:41.106Z,1.65
2023-02-17T22:54:08.628Z,1.73
2023-02-17T22:56:36.688Z,1.52
2023-02-17T22:59:05.679Z,1.20
2023-02-17T23:01:35.013Z,1.20
2023-02-17T23:04:02.597Z,0.88
2023-02-17T23:06:36.202Z,1.30
2023-02-17T23:09:05.299Z,0.90
2023-02-17T23:11:53.028Z,1.38
2023-02-17T23:14:22.466Z,1.45
2023-02-17T23:16:50.434Z,1.33
2023-02-17T23:19:19.595Z,1.75
2023-02-17T23:21:52.906Z,1.38
2023-02-17T23:24:21.722Z,1.73
2023-02-17T23:26:48.909Z,1.50
2023-02-17T23:29:16.715Z,1.23
2023-02-17T23:31:44.207Z,1.30
2023-02-17T23:34:13.723Z,1.20
2023-02-17T23:36:42.152Z,2.38
2023-02-17T23:39:09.929Z,1.65
2023-02-17T23:41:38.030Z,1.67
2023-02-17T23:44:06.763Z,1.33
2023-02-17T23:46:34.643Z,1.55
2023-02-17T23:49:01.762Z,2.95
2023-02-17T23:51:28.697Z,1.40
2023-02-17T23:53:55.654Z,1.77
2023-02-17T23:56:29.191Z,2.10
2023-02-17T23:58:56.137Z,1.83
